sensor_id;sensor_type;location;lat;lon;timestamp;temperature;humidity
42479;DHT22;28110;47.080;9.476;2023-07-13T00:01:50;17.60;99.90
42479;DHT22;28110;47.080;9.476;2023-07-13T00:04:18;17.50;99.90
42479;DHT22;28110;47.080;9.476;2023-07-13T00:06:45;17.50;99.90
42479;DHT22;28110;47.080;9.476;2023-07-13T00:09:14;17.50;99.90
42479;DHT22;28110;47.080;9.476;2023-07-13T00:11:41;17.50;99.90
42479;DHT22;28110;47.080;9.476;2023-07-13T00:14:07;17.50;99.90
42479;DHT22;28110;47.080;9.476;2023-07-13T00:16:34;17.40;99.90
42479;DHT22;28110;47.080;9.476;2023-07-13T00:19:00;17.40;99.90
42479;DHT22;28110;47.080;9.476;2023-07-13T00:21:26;17.40;99.90
42479;DHT22;28110;47.080;9.476;2023-07-13T00:23:52;17.40;99.90
42479;DHT22;28110;47.080;9.476;2023-07-13T00:26:17;17.40;99.90
42479;DHT22;28110;47.080;9.476;2023-07-13T00:28:43;17.40;99.90
42479;DHT22;28110;47.080;9.476;2023-07-13T00:31:10;17.50;99.90
42479;DHT22;28110;47.080;9.476;2023-07-13T00:33:36;17.40;99.90
42479;DHT22;28110;47.080;9.476;2023-07-13T00:36:03;17.40;99.90
42479;DHT22;28110;47.080;9.476;2023-07-13T00:38:28;17.50;99.90
42479;DHT22;28110;47.080;9.476;2023-07-13T00:40:54;17.50;99.90
42479;DHT22;28110;47.080;9.476;2023-07-13T00:43:22;17.50;99.90
42479;DHT22;28110;47.080;9.476;2023-07-13T00:48:18;17.50;99.90
42479;DHT22;28110;47.080;9.476;2023-07-13T00:50:48;17.50;99.90
42479;DHT22;28110;47.080;9.476;2023-07-13T00:53:15;17.40;99.90
42479;DHT22;28110;47.080;9.476;2023-07-13T00:55:41;17.40;99.90
42479;DHT22;28110;47.080;9.476;2023-07-13T00:58:07;17.40;99.90
42479;DHT22;28110;47.080;9.476;2023-07-13T01:00:35;17.40;99.90
42479;DHT22;28110;47.080;9.476;2023-07-13T01:03:02;17.40;99.90
42479;DHT22;28110;47.080;9.476;2023-07-13T01:05:31;17.40;99.90
42479;DHT22;28110;47.080;9.476;2023-07-13T01:07:58;17.40;99.90
42479;DHT22;28110;47.080;9.476;2023-07-13T01:10:25;17.40;99.90
42479;DHT22;28110;47.080;9.476;2023-07-13T01:12:51;17.40;99.90
42479;DHT22;28110;47.080;9.476;2023-07-13T01:15:37;17.40;99.90
42479;DHT22;28110;47.080;9.476;2023-07-13T01:18:05;17.40;99.90
42479;DHT22;28110;47.080;9.476;2023-07-13T01:20:32;17.40;99.90
42479;DHT22;28110;47.080;9.476;2023-07-13T01:23:09;17.30;99.90
42479;DHT22;28110;47.080;9.476;2023-07-13T01:25:36;17.30;99.90
42479;DHT22;28110;47.080;9.476;2023-07-13T01:28:03;17.30;99.90
42479;DHT22;28110;47.080;9.476;2023-07-13T01:30:29;17.30;99.90
42479;DHT22;28110;47.080;9.476;2023-07-13T01:32:55;17.30;99.90
42479;DHT22;28110;47.080;9.476;2023-07-13T01:35:20;17.30;99.90
42479;DHT22;28110;47.080;9.476;2023-07-13T01:37:46;17.30;99.90
42479;DHT22;28110;47.080;9.476;2023-07-13T01:40:12;17.30;99.90
42479;DHT22;28110;47.080;9.476;2023-07-13T01:42:38;17.30;99.90
42479;DHT22;28110;47.080;9.476;2023-07-13T01:45:04;17.30;99.90
42479;DHT22;28110;47.080;9.476;2023-07-13T01:47:30;17.40;99.90
42479;DHT22;28110;47.080;9.476;2023-07-13T01:49:57;17.40;99.90
42479;DHT22;28110;47.080;9.476;2023-07-13T01:52:22;17.30;99.90
42479;DHT22;28110;47.080;9.476;2023-07-13T01:54:48;17.30;99.90
42479;DHT22;28110;47.080;9.476;2023-07-13T01:57:14;17.30;99.90
42479;DHT22;28110;47.080;9.476;2023-07-13T01:59:39;17.30;99.90
42479;DHT22;28110;47.080;9.476;2023-07-13T02:02:05;17.30;99.90
42479;DHT22;28110;47.080;9.476;2023-07-13T02:04:30;17.30;99.90
42479;DHT22;28110;47.080;9.476;2023-07-13T02:06:56;17.30;99.90
42479;DHT22;28110;47.080;9.476;2023-07-13T02:09:21;17.20;99.90
42479;DHT22;28110;47.080;9.476;2023-07-13T02:11:47;17.20;99.90
42479;DHT22;28110;47.080;9.476;2023-07-13T02:14:14;17.20;99.90
42479;DHT22;28110;47.080;9.476;2023-07-13T02:16:41;17.20;99.90
42479;DHT22;28110;47.080;9.476;2023-07-13T02:19:07;17.30;99.90
42479;DHT22;28110;47.080;9.476;2023-07-13T02:21:33;17.20;99.90
42479;DHT22;28110;47.080;9.476;2023-07-13T02:23:58;17.20;99.90
42479;DHT22;28110;47.080;9.476;2023-07-13T02:26:25;17.20;99.90
42479;DHT22;28110;47.080;9.476;2023-07-13T02:28:51;17.20;99.90
42479;DHT22;28110;47.080;9.476;2023-07-13T02:31:16;17.10;99.90
42479;DHT22;28110;47.080;9.476;2023-07-13T02:33:42;17.20;99.90
42479;DHT22;28110;47.080;9.476;2023-07-13T02:36:08;17.20;99.90
42479;DHT22;28110;47.080;9.476;2023-07-13T02:38:34;17.20;99.90
42479;DHT22;28110;47.080;9.476;2023-07-13T02:41:01;17.20;99.90
42479;DHT22;28110;47.080;9.476;2023-07-13T02:43:27;17.20;99.90
42479;DHT22;28110;47.080;9.476;2023-07-13T02:45:53;17.20;99.90
42479;DHT22;28110;47.080;9.476;2023-07-13T02:48:18;17.30;99.90
42479;DHT22;28110;47.080;9.476;2023-07-13T02:50:45;17.30;99.90
42479;DHT22;28110;47.080;9.476;2023-07-13T02:53:10;17.30;99.90
42479;DHT22;28110;47.080;9.476;2023-07-13T02:55:36;17.30;99.90
42479;DHT22;28110;47.080;9.476;2023-07-13T02:58:02;17.30;99.90
42479;DHT22;28110;47.080;9.476;2023-07-13T03:00:27;17.30;99.90
42479;DHT22;28110;47.080;9.476;2023-07-13T03:02:54;17.30;99.90
42479;DHT22;28110;47.080;9.476;2023-07-13T03:05:22;17.30;99.90
42479;DHT22;28110;47.080;9.476;2023-07-13T03:07:48;17.30;99.90
42479;DHT22;28110;47.080;9.476;2023-07-13T03:10:13;17.30;99.90
42479;DHT22;28110;47.080;9.476;2023-07-13T03:12:39;17.30;99.90
42479;DHT22;28110;47.080;9.476;2023-07-13T03:15:05;17.30;99.90
42479;DHT22;28110;47.080;9.476;2023-07-13T03:17:30;17.30;99.90
42479;DHT22;28110;47.080;9.476;2023-07-13T03:19:56;17.30;99.90
42479;DHT22;28110;47.080;9.476;2023-07-13T03:22:22;17.30;99.90
42479;DHT22;28110;47.080;9.476;2023-07-13T03:24:48;17.30;99.90
42479;DHT22;28110;47.080;9.476;2023-07-13T03:27:14;17.40;99.90
42479;DHT22;28110;47.080;9.476;2023-07-13T03:29:40;17.30;99.90
42479;DHT22;28110;47.080;9.476;2023-07-13T03:32:06;17.30;99.90
42479;DHT22;28110;47.080;9.476;2023-07-13T03:34:31;17.30;99.90
42479;DHT22;28110;47.080;9.476;2023-07-13T03:36:58;17.30;99.90
42479;DHT22;28110;47.080;9.476;2023-07-13T03:39:23;17.30;99.90
42479;DHT22;28110;47.080;9.476;2023-07-13T03:41:49;17.20;99.90
42479;DHT22;28110;47.080;9.476;2023-07-13T03:44:16;17.30;99.90
42479;DHT22;28110;47.080;9.476;2023-07-13T03:46:43;17.30;99.90
42479;DHT22;28110;47.080;9.476;2023-07-13T03:49:09;17.30;99.90
42479;DHT22;28110;47.080;9.476;2023-07-13T03:51:35;17.30;99.90
42479;DHT22;28110;47.080;9.476;2023-07-13T03:54:00;17.30;99.90
42479;DHT22;28110;47.080;9.476;2023-07-13T03:56:27;17.30;99.90
42479;DHT22;28110;47.080;9.476;2023-07-13T03:58:53;17.30;99.90
42479;DHT22;28110;47.080;9.476;2023-07-13T04:01:20;17.30;99.90
42479;DHT22;28110;47.080;9.476;2023-07-13T04:03:46;17.30;99.90
42479;DHT22;28110;47.080;9.476;2023-07-13T04:06:16;17.30;99.90
42479;DHT22;28110;47.080;9.476;2023-07-13T04:08:51;17.30;99.90
42479;DHT22;28110;47.080;9.476;2023-07-13T04:11:18;17.30;99.90
42479;DHT22;28110;47.080;9.476;2023-07-13T04:13:43;17.20;99.90
42479;DHT22;28110;47.080;9.476;2023-07-13T04:16:09;17.20;99.90
42479;DHT22;28110;47.080;9.476;2023-07-13T04:18:35;17.20;99.90
42479;DHT22;28110;47.080;9.476;2023-07-13T04:21:00;17.20;99.90
42479;DHT22;28110;47.080;9.476;2023-07-13T04:23:26;17.20;99.90
42479;DHT22;28110;47.080;9.476;2023-07-13T04:25:53;17.20;99.90
42479;DHT22;28110;47.080;9.476;2023-07-13T04:28:20;17.20;99.90
42479;DHT22;28110;47.080;9.476;2023-07-13T04:30:46;17.10;99.90
42479;DHT22;28110;47.080;9.476;2023-07-13T04:33:12;17.10;99.90
42479;DHT22;28110;47.080;9.476;2023-07-13T04:35:37;17.20;99.90
42479;DHT22;28110;47.080;9.476;2023-07-13T04:38:03;17.20;99.90
42479;DHT22;28110;47.080;9.476;2023-07-13T04:40:29;17.20;99.90
42479;DHT22;28110;47.080;9.476;2023-07-13T04:42:55;17.30;99.90
42479;DHT22;28110;47.080;9.476;2023-07-13T04:45:22;17.40;99.90
42479;DHT22;28110;47.080;9.476;2023-07-13T04:47:49;17.40;99.90
42479;DHT22;28110;47.080;9.476;2023-07-13T04:50:15;17.50;99.90
42479;DHT22;28110;47.080;9.476;2023-07-13T04:52:45;17.50;99.90
42479;DHT22;28110;47.080;9.476;2023-07-13T04:55:11;17.60;99.90
42479;DHT22;28110;47.080;9.476;2023-07-13T04:57:36;17.70;99.90
42479;DHT22;28110;47.080;9.476;2023-07-13T05:00:03;17.70;99.90
42479;DHT22;28110;47.080;9.476;2023-07-13T05:02:31;17.70;99.90
42479;DHT22;28110;47.080;9.476;2023-07-13T05:04:58;17.80;99.90
42479;DHT22;28110;47.080;9.476;2023-07-13T05:07:23;17.80;99.90
42479;DHT22;28110;47.080;9.476;2023-07-13T05:09:49;17.80;99.90
42479;DHT22;28110;47.080;9.476;2023-07-13T05:12:14;17.70;99.90
42479;DHT22;28110;47.080;9.476;2023-07-13T05:14:40;17.70;99.90
42479;DHT22;28110;47.080;9.476;2023-07-13T05:17:05;17.70;99.90
42479;DHT22;28110;47.080;9.476;2023-07-13T05:19:31;17.80;99.90
42479;DHT22;28110;47.080;9.476;2023-07-13T05:21:57;17.80;99.90
42479;DHT22;28110;47.080;9.476;2023-07-13T05:24:23;17.80;99.90
42479;DHT22;28110;47.080;9.476;2023-07-13T05:26:48;17.80;99.90
42479;DHT22;28110;47.080;9.476;2023-07-13T05:29:14;17.80;99.90
42479;DHT22;28110;47.080;9.476;2023-07-13T05:31:39;17.80;99.90
42479;DHT22;28110;47.080;9.476;2023-07-13T05:34:05;17.80;99.90
42479;DHT22;28110;47.080;9.476;2023-07-13T05:36:30;17.90;99.90
42479;DHT22;28110;47.080;9.476;2023-07-13T05:38:56;17.80;99.90
42479;DHT22;28110;47.080;9.476;2023-07-13T05:41:21;17.90;99.90
42479;DHT22;28110;47.080;9.476;2023-07-13T05:43:47;17.80;99.90
42479;DHT22;28110;47.080;9.476;2023-07-13T05:46:13;17.90;99.90
42479;DHT22;28110;47.080;9.476;2023-07-13T05:48:38;17.90;99.90
42479;DHT22;28110;47.080;9.476;2023-07-13T05:51:04;17.90;99.90
42479;DHT22;28110;47.080;9.476;2023-07-13T05:53:29;17.90;99.90
42479;DHT22;28110;47.080;9.476;2023-07-13T05:55:55;17.90;99.90
42479;DHT22;28110;47.080;9.476;2023-07-13T05:58:21;17.90;99.90
42479;DHT22;28110;47.080;9.476;2023-07-13T06:00:47;17.90;99.90
42479;DHT22;28110;47.080;9.476;2023-07-13T06:03:13;17.90;99.90
42479;DHT22;28110;47.080;9.476;2023-07-13T06:05:39;18.00;99.90
42479;DHT22;28110;47.080;9.476;2023-07-13T06:08:06;18.00;99.90
42479;DHT22;28110;47.080;9.476;2023-07-13T06:10:35;18.10;99.90
42479;DHT22;28110;47.080;9.476;2023-07-13T06:13:01;18.20;99.90
42479;DHT22;28110;47.080;9.476;2023-07-13T06:15:27;18.30;99.90
42479;DHT22;28110;47.080;9.476;2023-07-13T06:17:53;18.40;99.90
42479;DHT22;28110;47.080;9.476;2023-07-13T06:20:18;18.40;99.90
42479;DHT22;28110;47.080;9.476;2023-07-13T06:22:44;18.50;99.90
42479;DHT22;28110;47.080;9.476;2023-07-13T06:25:09;18.50;99.90
42479;DHT22;28110;47.080;9.476;2023-07-13T06:27:35;18.50;99.90
42479;DHT22;28110;47.080;9.476;2023-07-13T06:30:01;18.50;99.90
42479;DHT22;28110;47.080;9.476;2023-07-13T06:32:26;18.60;99.90
42479;DHT22;28110;47.080;9.476;2023-07-13T06:34:52;18.60;99.90
42479;DHT22;28110;47.080;9.476;2023-07-13T06:37:18;18.70;99.90
42479;DHT22;28110;47.080;9.476;2023-07-13T06:39:43;18.70;99.90
42479;DHT22;28110;47.080;9.476;2023-07-13T06:42:09;18.70;99.90
42479;DHT22;28110;47.080;9.476;2023-07-13T06:44:35;18.70;99.90
42479;DHT22;28110;47.080;9.476;2023-07-13T06:47:00;18.70;99.90
42479;DHT22;28110;47.080;9.476;2023-07-13T06:49:26;18.70;99.90
42479;DHT22;28110;47.080;9.476;2023-07-13T06:51:51;18.70;99.90
42479;DHT22;28110;47.080;9.476;2023-07-13T06:54:17;18.70;99.90
42479;DHT22;28110;47.080;9.476;2023-07-13T06:56:42;18.70;99.90
42479;DHT22;28110;47.080;9.476;2023-07-13T06:59:08;18.60;99.90
42479;DHT22;28110;47.080;9.476;2023-07-13T07:01:34;18.60;99.90
42479;DHT22;28110;47.080;9.476;2023-07-13T07:03:59;18.60;99.90
42479;DHT22;28110;47.080;9.476;2023-07-13T07:06:25;18.60;99.90
42479;DHT22;28110;47.080;9.476;2023-07-13T07:08:51;18.60;99.90
42479;DHT22;28110;47.080;9.476;2023-07-13T07:11:19;18.60;99.90
42479;DHT22;28110;47.080;9.476;2023-07-13T07:13:45;18.50;99.90
42479;DHT22;28110;47.080;9.476;2023-07-13T07:16:11;18.50;99.90
42479;DHT22;28110;47.080;9.476;2023-07-13T07:18:37;18.50;99.90
42479;DHT22;28110;47.080;9.476;2023-07-13T07:21:03;18.50;99.90
42479;DHT22;28110;47.080;9.476;2023-07-13T07:23:28;18.50;99.90
42479;DHT22;28110;47.080;9.476;2023-07-13T07:25:54;18.50;99.90
42479;DHT22;28110;47.080;9.476;2023-07-13T07:28:20;18.50;99.90
42479;DHT22;28110;47.080;9.476;2023-07-13T07:30:46;18.50;99.90
42479;DHT22;28110;47.080;9.476;2023-07-13T07:33:13;18.40;99.90
42479;DHT22;28110;47.080;9.476;2023-07-13T07:35:39;18.40;99.90
42479;DHT22;28110;47.080;9.476;2023-07-13T07:38:05;18.40;99.90
42479;DHT22;28110;47.080;9.476;2023-07-13T07:40:30;18.50;99.90
42479;DHT22;28110;47.080;9.476;2023-07-13T07:42:57;18.40;99.90
42479;DHT22;28110;47.080;9.476;2023-07-13T07:45:22;18.50;99.90
42479;DHT22;28110;47.080;9.476;2023-07-13T07:47:49;18.50;99.90
42479;DHT22;28110;47.080;9.476;2023-07-13T07:50:14;18.40;99.90
42479;DHT22;28110;47.080;9.476;2023-07-13T07:52:40;18.40;99.90
42479;DHT22;28110;47.080;9.476;2023-07-13T07:55:07;18.40;99.90
42479;DHT22;28110;47.080;9.476;2023-07-13T07:57:33;18.30;99.90
42479;DHT22;28110;47.080;9.476;2023-07-13T07:59:58;18.40;99.90
42479;DHT22;28110;47.080;9.476;2023-07-13T08:02:27;18.40;99.90
42479;DHT22;28110;47.080;9.476;2023-07-13T08:04:52;18.50;99.90
42479;DHT22;28110;47.080;9.476;2023-07-13T08:07:18;18.40;99.90
42479;DHT22;28110;47.080;9.476;2023-07-13T08:09:43;18.50;99.90
42479;DHT22;28110;47.080;9.476;2023-07-13T08:12:09;18.50;99.90
42479;DHT22;28110;47.080;9.476;2023-07-13T08:14:35;18.60;99.90
42479;DHT22;28110;47.080;9.476;2023-07-13T08:17:00;18.80;99.90
42479;DHT22;28110;47.080;9.476;2023-07-13T08:19:26;18.90;99.90
42479;DHT22;28110;47.080;9.476;2023-07-13T08:21:51;19.00;99.90
42479;DHT22;28110;47.080;9.476;2023-07-13T08:24:17;19.00;99.90
42479;DHT22;28110;47.080;9.476;2023-07-13T08:26:44;19.10;99.90
42479;DHT22;28110;47.080;9.476;2023-07-13T08:29:10;19.20;99.90
42479;DHT22;28110;47.080;9.476;2023-07-13T08:31:36;19.30;99.90
42479;DHT22;28110;47.080;9.476;2023-07-13T08:34:02;19.40;99.90
42479;DHT22;28110;47.080;9.476;2023-07-13T08:36:28;19.50;99.90
42479;DHT22;28110;47.080;9.476;2023-07-13T08:38:54;19.60;99.90
42479;DHT22;28110;47.080;9.476;2023-07-13T08:41:20;19.70;99.90
42479;DHT22;28110;47.080;9.476;2023-07-13T08:43:52;20.00;99.90
42479;DHT22;28110;47.080;9.476;2023-07-13T08:46:25;20.20;99.90
42479;DHT22;28110;47.080;9.476;2023-07-13T08:48:56;20.30;99.90
42479;DHT22;28110;47.080;9.476;2023-07-13T08:54:31;20.50;99.90
42479;DHT22;28110;47.080;9.476;2023-07-13T08:56:59;20.50;99.90
42479;DHT22;28110;47.080;9.476;2023-07-13T08:59:29;20.50;99.90
42479;DHT22;28110;47.080;9.476;2023-07-13T09:04:50;20.50;99.90
42479;DHT22;28110;47.080;9.476;2023-07-13T09:07:32;20.70;99.90
42479;DHT22;28110;47.080;9.476;2023-07-13T09:10:14;20.90;99.90
42479;DHT22;28110;47.080;9.476;2023-07-13T09:15:30;20.70;99.90
42479;DHT22;28110;47.080;9.476;2023-07-13T09:18:03;20.60;99.90
42479;DHT22;28110;47.080;9.476;2023-07-13T09:20:35;20.80;99.90
42479;DHT22;28110;47.080;9.476;2023-07-13T09:23:05;20.90;99.90
42479;DHT22;28110;47.080;9.476;2023-07-13T09:25:34;21.20;99.90
42479;DHT22;28110;47.080;9.476;2023-07-13T09:28:19;21.40;99.90
42479;DHT22;28110;47.080;9.476;2023-07-13T09:31:23;21.80;99.90
42479;DHT22;28110;47.080;9.476;2023-07-13T09:33:51;21.90;99.90
42479;DHT22;28110;47.080;9.476;2023-07-13T09:36:18;22.10;99.90
42479;DHT22;28110;47.080;9.476;2023-07-13T09:38:44;22.10;99.90
42479;DHT22;28110;47.080;9.476;2023-07-13T09:41:49;22.20;99.90
42479;DHT22;28110;47.080;9.476;2023-07-13T09:44:18;22.20;99.90
42479;DHT22;28110;47.080;9.476;2023-07-13T09:46:54;22.20;99.90
42479;DHT22;28110;47.080;9.476;2023-07-13T09:49:27;22.30;99.90
42479;DHT22;28110;47.080;9.476;2023-07-13T09:51:59;22.40;99.90
42479;DHT22;28110;47.080;9.476;2023-07-13T09:54:26;22.40;99.90
42479;DHT22;28110;47.080;9.476;2023-07-13T09:56:57;22.30;99.90
42479;DHT22;28110;47.080;9.476;2023-07-13T09:59:26;22.30;99.90
42479;DHT22;28110;47.080;9.476;2023-07-13T10:01:52;22.40;99.90
42479;DHT22;28110;47.080;9.476;2023-07-13T10:04:19;22.20;99.90
42479;DHT22;28110;47.080;9.476;2023-07-13T10:06:45;22.30;99.90
42479;DHT22;28110;47.080;9.476;2023-07-13T10:09:16;22.40;99.90
42479;DHT22;28110;47.080;9.476;2023-07-13T10:11:42;22.30;99.90
42479;DHT22;28110;47.080;9.476;2023-07-13T10:14:17;22.30;99.90
42479;DHT22;28110;47.080;9.476;2023-07-13T10:16:46;22.30;99.90
42479;DHT22;28110;47.080;9.476;2023-07-13T10:19:14;22.40;99.90
42479;DHT22;28110;47.080;9.476;2023-07-13T10:21:55;22.40;99.90
42479;DHT22;28110;47.080;9.476;2023-07-13T10:24:27;22.50;99.90
42479;DHT22;28110;47.080;9.476;2023-07-13T10:30:17;22.80;99.90
42479;DHT22;28110;47.080;9.476;2023-07-13T10:32:40;22.70;99.90
42479;DHT22;28110;47.080;9.476;2023-07-13T10:35:10;22.60;99.90
42479;DHT22;28110;47.080;9.476;2023-07-13T10:40:19;22.60;99.90
42479;DHT22;28110;47.080;9.476;2023-07-13T10:42:48;22.50;99.90
42479;DHT22;28110;47.080;9.476;2023-07-13T10:45:17;22.40;99.90
42479;DHT22;28110;47.080;9.476;2023-07-13T10:47:44;22.40;99.90
42479;DHT22;28110;47.080;9.476;2023-07-13T10:50:19;22.40;99.90
42479;DHT22;28110;47.080;9.476;2023-07-13T10:52:51;22.30;99.90
42479;DHT22;28110;47.080;9.476;2023-07-13T10:55:36;22.20;99.90
42479;DHT22;28110;47.080;9.476;2023-07-13T10:58:23;22.20;99.90
42479;DHT22;28110;47.080;9.476;2023-07-13T11:01:13;22.10;99.90
42479;DHT22;28110;47.080;9.476;2023-07-13T11:03:50;22.10;99.90
42479;DHT22;28110;47.080;9.476;2023-07-13T11:13:59;22.10;99.90
42479;DHT22;28110;47.080;9.476;2023-07-13T11:16:45;22.10;99.90
42479;DHT22;28110;47.080;9.476;2023-07-13T11:22:09;22.10;99.90
42479;DHT22;28110;47.080;9.476;2023-07-13T11:25:21;22.20;99.90
42479;DHT22;28110;47.080;9.476;2023-07-13T11:28:17;22.40;99.90
42479;DHT22;28110;47.080;9.476;2023-07-13T11:36:04;22.80;99.90
42479;DHT22;28110;47.080;9.476;2023-07-13T11:38:37;22.80;99.90
42479;DHT22;28110;47.080;9.476;2023-07-13T11:41:26;22.60;99.90
42479;DHT22;28110;47.080;9.476;2023-07-13T11:43:55;22.60;99.90
42479;DHT22;28110;47.080;9.476;2023-07-13T11:46:28;22.60;99.90
42479;DHT22;28110;47.080;9.476;2023-07-13T11:48:54;22.60;99.90
42479;DHT22;28110;47.080;9.476;2023-07-13T11:51:34;22.60;99.90
42479;DHT22;28110;47.080;9.476;2023-07-13T11:54:04;22.70;99.90
42479;DHT22;28110;47.080;9.476;2023-07-13T11:56:30;22.70;99.90
42479;DHT22;28110;47.080;9.476;2023-07-13T11:58:59;22.50;99.90
42479;DHT22;28110;47.080;9.476;2023-07-13T12:01:30;22.60;99.90
42479;DHT22;28110;47.080;9.476;2023-07-13T12:04:00;22.50;99.90
42479;DHT22;28110;47.080;9.476;2023-07-13T12:06:31;22.30;99.90
42479;DHT22;28110;47.080;9.476;2023-07-13T12:08:58;22.30;99.90
42479;DHT22;28110;47.080;9.476;2023-07-13T12:11:25;22.10;99.90
42479;DHT22;28110;47.080;9.476;2023-07-13T12:13:50;22.00;99.90
42479;DHT22;28110;47.080;9.476;2023-07-13T12:16:25;22.00;99.90
42479;DHT22;28110;47.080;9.476;2023-07-13T12:18:53;22.00;99.90
42479;DHT22;28110;47.080;9.476;2023-07-13T12:21:19;21.90;99.90
42479;DHT22;28110;47.080;9.476;2023-07-13T12:23:48;21.90;99.90
42479;DHT22;28110;47.080;9.476;2023-07-13T12:26:15;21.90;99.90
42479;DHT22;28110;47.080;9.476;2023-07-13T12:28:47;21.90;99.90
42479;DHT22;28110;47.080;9.476;2023-07-13T12:31:25;22.00;99.90
42479;DHT22;28110;47.080;9.476;2023-07-13T12:33:57;22.00;99.90
42479;DHT22;28110;47.080;9.476;2023-07-13T12:36:23;22.00;99.90
42479;DHT22;28110;47.080;9.476;2023-07-13T12:38:49;22.10;99.90
42479;DHT22;28110;47.080;9.476;2023-07-13T12:41:15;22.00;99.90
42479;DHT22;28110;47.080;9.476;2023-07-13T12:43:41;22.00;99.90
42479;DHT22;28110;47.080;9.476;2023-07-13T12:46:19;22.10;99.90
42479;DHT22;28110;47.080;9.476;2023-07-13T12:48:49;22.00;99.90
42479;DHT22;28110;47.080;9.476;2023-07-13T12:51:15;22.10;99.90
42479;DHT22;28110;47.080;9.476;2023-07-13T12:53:48;22.10;99.90
42479;DHT22;28110;47.080;9.476;2023-07-13T12:56:21;22.10;99.90
42479;DHT22;28110;47.080;9.476;2023-07-13T12:58:48;22.20;99.90
42479;DHT22;28110;47.080;9.476;2023-07-13T13:01:21;22.20;99.90
42479;DHT22;28110;47.080;9.476;2023-07-13T13:03:50;22.20;99.90
42479;DHT22;28110;47.080;9.476;2023-07-13T13:06:28;22.20;99.90
42479;DHT22;28110;47.080;9.476;2023-07-13T13:08:56;22.20;99.90
42479;DHT22;28110;47.080;9.476;2023-07-13T13:11:24;22.20;99.90
42479;DHT22;28110;47.080;9.476;2023-07-13T13:13:51;22.20;99.90
42479;DHT22;28110;47.080;9.476;2023-07-13T13:16:26;22.30;99.90
42479;DHT22;28110;47.080;9.476;2023-07-13T13:18:59;22.40;99.90
42479;DHT22;28110;47.080;9.476;2023-07-13T13:21:25;22.40;99.90
42479;DHT22;28110;47.080;9.476;2023-07-13T13:23:51;22.20;99.90
42479;DHT22;28110;47.080;9.476;2023-07-13T13:26:19;22.30;99.90
42479;DHT22;28110;47.080;9.476;2023-07-13T13:28:46;22.20;99.90
42479;DHT22;28110;47.080;9.476;2023-07-13T13:31:13;22.10;99.90
42479;DHT22;28110;47.080;9.476;2023-07-13T13:33:40;22.00;99.90
42479;DHT22;28110;47.080;9.476;2023-07-13T13:36:21;22.00;99.90
42479;DHT22;28110;47.080;9.476;2023-07-13T13:38:48;22.10;99.90
42479;DHT22;28110;47.080;9.476;2023-07-13T13:41:15;22.10;99.90
42479;DHT22;28110;47.080;9.476;2023-07-13T13:43:42;22.10;99.90
42479;DHT22;28110;47.080;9.476;2023-07-13T13:46:15;22.20;99.90
42479;DHT22;28110;47.080;9.476;2023-07-13T13:48:42;22.30;99.90
42479;DHT22;28110;47.080;9.476;2023-07-13T13:51:17;22.30;99.90
42479;DHT22;28110;47.080;9.476;2023-07-13T13:53:44;22.20;99.90
42479;DHT22;28110;47.080;9.476;2023-07-13T13:56:11;22.30;99.90
42479;DHT22;28110;47.080;9.476;2023-07-13T13:58:36;22.40;99.90
42479;DHT22;28110;47.080;9.476;2023-07-13T14:01:02;22.50;99.90
42479;DHT22;28110;47.080;9.476;2023-07-13T14:03:31;22.60;99.90
42479;DHT22;28110;47.080;9.476;2023-07-13T14:05:56;22.50;99.90
42479;DHT22;28110;47.080;9.476;2023-07-13T14:08:22;22.40;99.90
42479;DHT22;28110;47.080;9.476;2023-07-13T14:10:50;22.40;99.90
42479;DHT22;28110;47.080;9.476;2023-07-13T14:13:23;22.50;99.90
42479;DHT22;28110;47.080;9.476;2023-07-13T14:15:52;22.50;99.90
42479;DHT22;28110;47.080;9.476;2023-07-13T14:18:18;22.60;99.90
42479;DHT22;28110;47.080;9.476;2023-07-13T14:20:47;22.70;99.90
42479;DHT22;28110;47.080;9.476;2023-07-13T14:23:14;22.70;99.90
42479;DHT22;28110;47.080;9.476;2023-07-13T14:25:41;22.80;99.90
42479;DHT22;28110;47.080;9.476;2023-07-13T14:28:21;22.90;99.90
42479;DHT22;28110;47.080;9.476;2023-07-13T14:30:48;22.90;99.90
42479;DHT22;28110;47.080;9.476;2023-07-13T14:33:14;23.00;99.90
42479;DHT22;28110;47.080;9.476;2023-07-13T14:35:39;23.10;99.90
42479;DHT22;28110;47.080;9.476;2023-07-13T14:38:10;23.10;99.90
42479;DHT22;28110;47.080;9.476;2023-07-13T14:40:37;23.20;99.90
42479;DHT22;28110;47.080;9.476;2023-07-13T14:43:03;23.10;99.90
42479;DHT22;28110;47.080;9.476;2023-07-13T14:45:30;23.10;99.90
42479;DHT22;28110;47.080;9.476;2023-07-13T14:47:56;23.10;99.90
42479;DHT22;28110;47.080;9.476;2023-07-13T14:50:31;23.20;99.90
42479;DHT22;28110;47.080;9.476;2023-07-13T14:52:57;23.10;99.90
42479;DHT22;28110;47.080;9.476;2023-07-13T14:55:23;23.10;99.90
42479;DHT22;28110;47.080;9.476;2023-07-13T14:57:51;23.10;99.90
42479;DHT22;28110;47.080;9.476;2023-07-13T15:00:19;23.10;99.90
42479;DHT22;28110;47.080;9.476;2023-07-13T15:02:54;23.10;99.90
42479;DHT22;28110;47.080;9.476;2023-07-13T15:05:23;23.20;99.90
42479;DHT22;28110;47.080;9.476;2023-07-13T15:07:50;23.40;99.90
42479;DHT22;28110;47.080;9.476;2023-07-13T15:12:43;23.50;99.90
42479;DHT22;28110;47.080;9.476;2023-07-13T15:15:09;23.70;99.90
42479;DHT22;28110;47.080;9.476;2023-07-13T15:17:43;23.70;99.90
42479;DHT22;28110;47.080;9.476;2023-07-13T15:22:51;23.80;99.90
42479;DHT22;28110;47.080;9.476;2023-07-13T15:25:19;23.80;99.90
42479;DHT22;28110;47.080;9.476;2023-07-13T15:27:46;23.90;99.90
42479;DHT22;28110;47.080;9.476;2023-07-13T15:30:12;23.90;99.90
42479;DHT22;28110;47.080;9.476;2023-07-13T15:32:38;23.90;99.90
42479;DHT22;28110;47.080;9.476;2023-07-13T15:35:05;23.90;99.90
42479;DHT22;28110;47.080;9.476;2023-07-13T15:37:30;23.90;99.90
42479;DHT22;28110;47.080;9.476;2023-07-13T15:39:56;23.90;99.90
42479;DHT22;28110;47.080;9.476;2023-07-13T15:42:23;23.90;99.90
42479;DHT22;28110;47.080;9.476;2023-07-13T15:44:48;24.00;99.90
42479;DHT22;28110;47.080;9.476;2023-07-13T15:47:15;24.00;99.90
42479;DHT22;28110;47.080;9.476;2023-07-13T15:49:41;24.00;99.90
42479;DHT22;28110;47.080;9.476;2023-07-13T15:52:33;24.00;99.90
42479;DHT22;28110;47.080;9.476;2023-07-13T15:55:00;24.10;99.90
42479;DHT22;28110;47.080;9.476;2023-07-13T15:57:26;24.00;99.90
42479;DHT22;28110;47.080;9.476;2023-07-13T15:59:52;24.10;99.90
42479;DHT22;28110;47.080;9.476;2023-07-13T16:02:19;24.00;99.90
42479;DHT22;28110;47.080;9.476;2023-07-13T16:04:46;24.00;99.90
42479;DHT22;28110;47.080;9.476;2023-07-13T16:07:14;23.90;99.90
42479;DHT22;28110;47.080;9.476;2023-07-13T16:09:40;23.90;99.90
42479;DHT22;28110;47.080;9.476;2023-07-13T16:12:12;23.90;99.90
42479;DHT22;28110;47.080;9.476;2023-07-13T16:14:40;23.80;99.90